createdAt,value
2018-02-22T00:00:43.744Z,18.20
2018-02-22T00:01:44.068Z,18.90
2018-02-22T00:02:44.385Z,19.10
2018-02-22T00:03:44.697Z,18.60
2018-02-22T00:04:45.010Z,19.00
2018-02-22T00:05:45.330Z,18.90
2018-02-22T00:06:45.438Z,19.50
2018-02-22T00:07:45.754Z,18.50
2018-02-22T00:08:46.082Z,19.80
2018-02-22T00:09:46.402Z,18.70
2018-02-22T00:10:46.723Z,18.60
2018-02-22T00:11:47.043Z,19.00
2018-02-22T00:12:47.365Z,19.90
2018-02-22T00:13:47.689Z,19.80
2018-02-22T00:14:48.015Z,18.70
2018-02-22T00:15:48.128Z,19.20
2018-02-22T00:16:48.235Z,19.60
2018-02-22T00:17:48.556Z,19.20
2018-02-22T00:18:48.876Z,19.70
2018-02-22T00:19:49.196Z,19.20
2018-02-22T00:20:49.503Z,19.30
2018-02-22T00:21:49.822Z,19.40
2018-02-22T00:22:50.144Z,19.20
2018-02-22T00:23:50.473Z,19.70
2018-02-22T00:24:50.575Z,19.60
2018-02-22T00:25:50.900Z,20.40
2018-02-22T00:26:51.008Z,18.80
2018-02-22T00:27:51.329Z,19.80
2018-02-22T00:28:51.649Z,19.40
2018-02-22T00:29:51.971Z,19.20
2018-02-22T00:30:52.291Z,19.00
2018-02-22T00:31:52.612Z,20.10
2018-02-22T00:32:52.935Z,18.90
2018-02-22T00:33:53.256Z,20.10
2018-02-22T00:34:53.584Z,19.40
2018-02-22T00:35:53.697Z,20.20
2018-02-22T00:36:53.809Z,20.40
2018-02-22T00:37:54.127Z,20.50
2018-02-22T00:38:54.446Z,19.50
2018-02-22T00:39:54.768Z,19.40
2018-02-22T00:40:55.097Z,19.10
2018-02-22T00:41:55.415Z,19.30
2018-02-22T00:42:55.729Z,19.40
2018-02-22T00:43:56.042Z,20.10
2018-02-22T00:44:56.354Z,18.90
2018-02-22T00:45:56.673Z,19.40
2018-02-22T00:46:56.783Z,19.10
2018-02-22T00:47:57.104Z,19.40
2018-02-22T00:48:57.425Z,19.20
2018-02-22T00:49:57.746Z,19.90
2018-02-22T00:50:58.067Z,19.10
2018-02-22T00:51:58.387Z,19.30
2018-02-22T00:52:58.708Z,19.10
2018-02-22T00:53:59.062Z,19.30
2018-02-22T00:54:59.411Z,19.90
2018-02-22T00:55:59.663Z,18.90
2018-02-22T00:56:59.991Z,20.10
2018-02-22T00:58:00.100Z,19.80
2018-02-22T00:59:00.420Z,20.20
2018-02-22T01:00:02.675Z,19.20
2018-02-22T01:01:01.007Z,19.40
2018-02-22T01:02:01.329Z,19.10
2018-02-22T01:03:01.648Z,19.50
2018-02-22T01:04:01.969Z,19.50
2018-02-22T01:05:02.297Z,19.40
2018-02-22T01:06:02.409Z,20.60
2018-02-22T01:07:02.729Z,19.50
2018-02-22T01:08:03.051Z,19.90
2018-02-22T01:09:03.372Z,19.60
2018-02-22T01:10:03.693Z,19.50
2018-02-22T01:11:04.015Z,20.40
2018-02-22T01:12:04.330Z,19.70
2018-02-22T01:13:04.647Z,20.10
2018-02-22T01:14:04.960Z,20.00
2018-02-22T01:15:05.276Z,19.90
2018-02-22T01:16:05.602Z,19.00
2018-02-22T01:17:05.922Z,19.20
2018-02-22T01:18:06.249Z,19.80
2018-02-22T01:19:06.565Z,19.40
2018-02-22T01:20:06.886Z,19.80
2018-02-22T01:21:07.205Z,20.50
2018-02-22T01:22:07.526Z,20.20
2018-02-22T01:23:07.853Z,20.30
2018-02-22T01:24:07.965Z,19.80
2018-02-22T01:25:08.284Z,20.10
2018-02-22T01:26:08.605Z,20.50
2018-02-22T01:27:08.925Z,19.50
2018-02-22T01:28:09.246Z,19.90
2018-02-22T01:29:09.571Z,20.20
2018-02-22T01:30:09.886Z,20.10
2018-02-22T01:31:10.201Z,20.10
2018-02-22T01:32:10.516Z,18.60
2018-02-22T01:33:10.833Z,20.00
2018-02-22T01:34:11.145Z,19.50
2018-02-22T01:35:11.468Z,18.90
2018-02-22T01:36:11.789Z,19.20
2018-02-22T01:37:12.109Z,19.00
2018-02-22T01:38:12.430Z,18.60
2018-02-22T01:39:12.754Z,18.90
2018-02-22T01:40:13.071Z,19.30
2018-02-22T01:41:13.391Z,19.80
2018-02-22T01:42:13.711Z,18.20
2018-02-22T01:43:14.038Z,19.00
2018-02-22T01:44:14.155Z,19.20
2018-02-22T01:45:14.259Z,18.80
2018-02-22T01:46:14.579Z,19.00
2018-02-22T01:47:14.899Z,19.30
2018-02-22T01:48:15.221Z,18.70
2018-02-22T01:49:15.541Z,19.30
2018-02-22T01:50:15.883Z,19.20
2018-02-22T01:51:15.989Z,18.50
2018-02-22T01:52:16.311Z,18.50
2018-02-22T01:53:16.631Z,18.70
2018-02-22T01:54:16.951Z,18.90
2018-02-22T01:55:17.272Z,19.50
2018-02-22T01:56:17.593Z,18.70
2018-02-22T01:57:17.912Z,18.70
2018-02-22T01:58:18.241Z,19.70
2018-02-22T01:59:18.351Z,19.40
2018-02-22T02:00:18.672Z,19.20
2018-02-22T02:01:18.993Z,19.10
2018-02-22T02:02:19.315Z,19.10
2018-02-22T02:03:19.633Z,18.60
2018-02-22T02:04:19.958Z,19.20
2018-02-22T02:05:20.272Z,19.00
2018-02-22T02:06:20.587Z,18.80
2018-02-22T02:07:20.907Z,19.40
2018-02-22T02:08:21.017Z,19.00
2018-02-22T02:09:21.337Z,18.40
2018-02-22T02:10:21.660Z,18.50
2018-02-22T02:11:21.979Z,18.80
2018-02-22T02:12:22.298Z,19.90
2018-02-22T02:13:22.618Z,19.40
2018-02-22T02:14:22.943Z,19.20
2018-02-22T02:15:23.050Z,19.40
2018-02-22T02:16:23.369Z,19.30
2018-02-22T02:17:23.690Z,19.50
2018-02-22T02:18:24.022Z,19.40
2018-02-22T02:19:24.130Z,19.60
2018-02-22T02:20:24.451Z,19.00
2018-02-22T02:21:24.772Z,18.40
2018-02-22T02:22:25.092Z,19.60
2018-02-22T02:23:25.422Z,18.90
2018-02-22T02:24:25.734Z,18.80
2018-02-22T02:25:26.048Z,18.80
2018-02-22T02:26:26.363Z,18.10
2018-02-22T02:27:26.677Z,19.40
2018-02-22T02:28:26.991Z,19.20
2018-02-22T02:29:27.309Z,18.70
2018-02-22T02:30:27.633Z,18.30
2018-02-22T02:31:27.953Z,19.40
2018-02-22T02:32:28.272Z,18.70
2018-02-22T02:33:28.593Z,19.30
2018-02-22T02:34:28.911Z,18.80
2018-02-22T02:35:29.220Z,19.60
2018-02-22T02:36:29.543Z,19.70
2018-02-22T02:37:29.862Z,18.80
2018-02-22T02:38:30.181Z,18.90
2018-02-22T02:39:30.501Z,19.10
2018-02-22T02:40:30.828Z,19.00
2018-02-22T02:41:30.942Z,19.10
2018-02-22T02:42:31.049Z,18.60
2018-02-22T02:43:31.369Z,18.70
2018-02-22T02:44:31.689Z,18.90
2018-02-22T02:45:32.009Z,19.90
2018-02-22T02:46:32.329Z,18.90
2018-02-22T02:47:32.657Z,19.60
2018-02-22T02:48:32.968Z,18.90
2018-02-22T02:49:33.286Z,19.70
2018-02-22T02:50:33.601Z,19.30
2018-02-22T02:51:33.914Z,19.30
2018-02-22T02:52:34.235Z,19.00
2018-02-22T02:53:34.557Z,19.70
2018-02-22T02:54:34.875Z,19.00
2018-02-22T02:55:35.199Z,19.60
2018-02-22T02:56:35.515Z,18.40
2018-02-22T02:57:35.836Z,19.30
2018-02-22T02:58:36.156Z,19.30
2018-02-22T02:59:36.477Z,18.60
2018-02-22T03:00:36.798Z,19.50
2018-02-22T03:01:37.125Z,19.50
2018-02-22T03:02:37.234Z,19.50
2018-02-22T03:03:37.555Z,18.80
2018-02-22T03:04:37.874Z,19.10
2018-02-22T03:05:38.195Z,18.90
2018-02-22T03:06:38.513Z,19.10
2018-02-22T03:07:38.855Z,19.50
2018-02-22T03:08:38.959Z,18.90
2018-02-22T03:09:39.279Z,18.50
2018-02-22T03:10:39.598Z,19.60
2018-02-22T03:11:39.921Z,19.30
2018-02-22T03:12:40.242Z,19.00
2018-02-22T03:13:40.562Z,19.50
2018-02-22T03:14:40.881Z,19.50
2018-02-22T03:15:41.202Z,19.80
2018-02-22T03:16:41.530Z,18.60
2018-02-22T03:17:41.641Z,18.80
2018-02-22T03:18:41.961Z,19.60
2018-02-22T03:19:42.282Z,18.90
2018-02-22T03:20:42.599Z,18.30
2018-02-22T03:21:42.923Z,19.20
2018-02-22T03:22:43.249Z,18.60
2018-02-22T03:23:43.567Z,19.60
2018-02-22T03:24:43.877Z,19.70
2018-02-22T03:25:44.192Z,19.10
2018-02-22T03:26:44.505Z,20.40
2018-02-22T03:27:44.827Z,18.90
2018-02-22T03:28:45.141Z,19.30
2018-02-22T03:29:45.468Z,19.90
2018-02-22T03:30:45.789Z,19.20
2018-02-22T03:31:46.109Z,19.30
2018-02-22T03:32:46.434Z,19.20
2018-02-22T03:33:46.748Z,19.40
2018-02-22T03:34:47.067Z,19.30
2018-02-22T03:35:47.387Z,19.80
2018-02-22T03:36:47.715Z,19.50
2018-02-22T03:37:47.831Z,19.00
2018-02-22T03:38:47.937Z,19.60
2018-02-22T03:39:48.256Z,19.60
2018-02-22T03:40:48.578Z,19.30
2018-02-22T03:41:48.896Z,19.00
2018-02-22T03:42:49.218Z,18.70
2018-02-22T03:43:49.542Z,20.80
2018-02-22T03:44:49.858Z,19.50
2018-02-22T03:45:50.171Z,19.90
2018-02-22T03:46:50.486Z,19.50
2018-02-22T03:47:50.801Z,19.20
2018-02-22T03:48:51.115Z,18.80
2018-02-22T03:49:51.429Z,19.80
2018-02-22T03:50:51.742Z,19.60
2018-02-22T03:51:52.062Z,19.50
2018-02-22T03:52:52.171Z,19.60
2018-02-22T03:53:52.493Z,18.90
2018-02-22T03:54:52.601Z,19.10
2018-02-22T03:55:52.920Z,19.20
2018-02-22T03:56:53.265Z,19.20
2018-02-22T03:57:53.548Z,19.20
2018-02-22T03:58:53.868Z,19.10
2018-02-22T03:59:54.188Z,19.20
2018-02-22T04:00:54.508Z,18.70
2018-02-22T04:01:54.828Z,18.40
2018-02-22T04:02:55.205Z,18.90
2018-02-22T04:03:55.469Z,19.20
2018-02-22T04:04:55.789Z,18.80
2018-02-22T04:05:56.116Z,19.40
2018-02-22T04:06:56.224Z,20.10
2018-02-22T04:07:56.545Z,19.70
2018-02-22T04:08:56.865Z,18.20
2018-02-22T04:09:57.186Z,19.30
2018-02-22T04:10:57.507Z,19.90
2018-02-22T04:11:57.832Z,20.00
2018-02-22T04:12:58.148Z,19.60
2018-02-22T04:13:58.461Z,19.80
2018-02-22T04:14:58.775Z,19.40
2018-02-22T04:15:59.090Z,18.60
2018-02-22T04:16:59.407Z,19.30
2018-02-22T04:17:59.718Z,18.40
2018-02-22T04:19:00.036Z,18.80
2018-02-22T04:20:00.144Z,19.30
2018-02-22T04:21:00.462Z,18.80
2018-02-22T04:22:00.781Z,18.60
2018-02-22T04:23:01.108Z,19.60
2018-02-22T04:24:01.220Z,18.30
2018-02-22T04:25:01.533Z,19.40
2018-02-22T04:26:01.853Z,18.40
2018-02-22T04:27:02.175Z,18.60
2018-02-22T04:28:02.497Z,18.50
2018-02-22T04:29:02.815Z,19.50
2018-02-22T04:30:03.135Z,19.20
2018-02-22T04:31:03.461Z,18.80
2018-02-22T04:32:03.571Z,19.50
2018-02-22T04:33:03.890Z,18.90
2018-02-22T04:34:04.211Z,19.50
2018-02-22T04:35:04.531Z,19.20
2018-02-22T04:36:04.851Z,17.90
2018-02-22T04:37:05.179Z,19.80
2018-02-22T04:38:05.511Z,19.80
2018-02-22T04:39:05.812Z,18.20
2018-02-22T04:40:06.125Z,18.30
2018-02-22T04:41:06.438Z,19.00
2018-02-22T04:42:06.550Z,18.60
2018-02-22T04:43:06.858Z,18.40
2018-02-22T04:44:07.178Z,19.00
2018-02-22T04:45:07.286Z,19.40
2018-02-22T04:46:07.610Z,19.60
2018-02-22T04:47:07.929Z,19.80
2018-02-22T04:48:08.250Z,19.20
2018-02-22T04:49:08.571Z,19.50
2018-02-22T04:50:08.890Z,19.20
2018-02-22T04:51:09.212Z,19.60
2018-02-22T04:52:09.530Z,19.40
2018-02-22T04:53:09.855Z,19.50
2018-02-22T04:54:10.176Z,18.20
2018-02-22T04:55:10.288Z,19.10
2018-02-22T04:56:10.609Z,19.30
2018-02-22T04:57:10.928Z,19.20
2018-02-22T04:58:11.252Z,18.60
2018-02-22T04:59:11.570Z,19.70
2018-02-22T05:00:11.896Z,19.40
2018-02-22T05:01:12.210Z,19.20
2018-02-22T05:02:12.525Z,19.70
2018-02-22T05:03:12.838Z,20.30
2018-02-22T05:04:13.185Z,19.80
2018-02-22T05:05:13.480Z,19.20
2018-02-22T05:06:13.801Z,19.30
2018-02-22T05:07:14.120Z,19.70
2018-02-22T05:08:14.439Z,19.80
2018-02-22T05:09:14.759Z,19.40
2018-02-22T05:10:15.079Z,19.00
2018-02-22T05:11:15.400Z,18.80
2018-02-22T05:12:15.719Z,19.50
2018-02-22T05:13:16.048Z,18.80
2018-02-22T05:14:16.158Z,19.80
2018-02-22T05:15:16.271Z,20.70
2018-02-22T05:16:16.588Z,19.90
2018-02-22T05:17:16.907Z,19.20
2018-02-22T05:18:17.228Z,19.10
2018-02-22T05:19:17.549Z,20.20
2018-02-22T05:20:17.874Z,18.90
2018-02-22T05:21:18.189Z,19.10
2018-02-22T05:22:18.510Z,19.80
2018-02-22T05:23:18.832Z,19.70
2018-02-22T05:24:19.134Z,19.60
2018-02-22T05:25:19.455Z,19.30
2018-02-22T05:26:19.775Z,18.80
2018-02-22T05:27:20.096Z,19.40
2018-02-22T05:28:20.417Z,20.40
2018-02-22T05:29:20.747Z,19.40
2018-02-22T05:30:21.056Z,19.40
2018-02-22T05:31:21.378Z,20.20
2018-02-22T05:32:21.694Z,20.00
2018-02-22T05:33:22.015Z,20.60
2018-02-22T05:34:22.395Z,19.20
2018-02-22T05:35:22.453Z,19.30
2018-02-22T05:36:22.566Z,20.20
2018-02-22T05:37:22.884Z,19.90
2018-02-22T05:38:23.205Z,19.10
2018-02-22T05:39:23.526Z,19.50
2018-02-22T05:40:23.844Z,19.10
2018-02-22T05:41:24.171Z,19.80
2018-02-22T05:42:24.506Z,19.50
2018-02-22T05:43:24.800Z,20.80
2018-02-22T05:44:25.112Z,19.50
2018-02-22T05:45:25.429Z,19.70
2018-02-22T05:46:25.740Z,20.10
2018-02-22T05:47:26.056Z,19.70
2018-02-22T05:48:26.377Z,19.30
2018-02-22T05:49:26.698Z,20.00
2018-02-22T05:50:26.807Z,19.70
2018-02-22T05:51:27.122Z,19.00
2018-02-22T05:52:27.442Z,19.80
2018-02-22T05:53:27.762Z,18.30
2018-02-22T05:54:28.085Z,19.80
2018-02-22T05:55:28.402Z,20.40
2018-02-22T05:56:28.722Z,19.70
2018-02-22T05:57:29.041Z,19.80
2018-02-22T05:58:29.362Z,20.00
2018-02-22T05:59:29.690Z,20.30
2018-02-22T06:00:29.798Z,18.90
2018-02-22T06:01:30.119Z,19.30
2018-02-22T06:02:30.442Z,19.30
2018-02-22T06:03:30.761Z,19.90
2018-02-22T06:04:31.079Z,19.60
2018-02-22T06:05:31.406Z,20.20
2018-02-22T06:06:31.719Z,20.20
2018-02-22T06:07:32.036Z,20.40
2018-02-22T06:08:32.350Z,19.90
2018-02-22T06:09:32.667Z,20.60
2018-02-22T06:10:32.988Z,20.60
2018-02-22T06:11:33.307Z,20.00
2018-02-22T06:12:33.627Z,19.60
2018-02-22T06:13:33.947Z,20.10
2018-02-22T06:14:34.268Z,19.40
2018-02-22T06:15:34.589Z,18.90
2018-02-22T06:16:34.909Z,19.60
2018-02-22T06:17:35.228Z,19.90
2018-02-22T06:18:35.548Z,20.10
2018-02-22T06:19:35.879Z,20.70
2018-02-22T06:20:35.986Z,20.10
2018-02-22T06:21:36.307Z,20.60
2018-02-22T06:22:36.626Z,20.80
2018-02-22T06:23:36.946Z,21.50
2018-02-22T06:24:37.266Z,21.40
2018-02-22T06:25:37.589Z,20.90
2018-02-22T06:26:37.906Z,21.60
2018-02-22T06:27:38.222Z,21.10
2018-02-22T06:28:38.534Z,21.40
2018-02-22T06:29:38.848Z,22.10
2018-02-22T06:30:39.162Z,21.90
2018-02-22T06:31:39.476Z,22.30
2018-02-22T06:32:39.796Z,21.90
2018-02-22T06:33:40.112Z,22.10
2018-02-22T06:34:40.229Z,22.50
2018-02-22T06:35:40.540Z,21.90
2018-02-22T06:36:40.852Z,22.30
2018-02-22T06:37:41.229Z,21.70
2018-02-22T06:38:41.494Z,22.00
2018-02-22T06:39:41.817Z,22.20
2018-02-22T06:40:41.924Z,22.30
2018-02-22T06:41:42.244Z,22.00
2018-02-22T06:42:42.563Z,22.40
2018-02-22T06:43:42.887Z,22.00
2018-02-22T06:44:43.207Z,20.60
2018-02-22T06:45:43.540Z,21.00
2018-02-22T06:46:43.648Z,21.10
2018-02-22T06:47:43.968Z,22.00
2018-02-22T06:48:44.288Z,21.60
2018-02-22T06:49:44.609Z,22.10
2018-02-22T06:50:44.926Z,21.90
2018-02-22T06:51:45.251Z,22.10
2018-02-22T06:56:09.691Z,22.50
2018-02-22T06:58:40.560Z,23.10
2018-02-22T06:59:40.881Z,21.70
2018-02-22T07:00:41.203Z,21.90
2018-02-22T07:01:41.505Z,21.10
2018-02-22T07:02:41.822Z,21.70
2018-02-22T07:03:42.145Z,22.90
2018-02-22T07:04:42.478Z,22.50
2018-02-22T07:05:42.575Z,21.90
2018-02-22T07:06:42.921Z,22.00
2018-02-22T07:07:49.707Z,22.20
2018-02-22T07:08:43.436Z,23.10
2018-02-22T07:09:43.755Z,22.50
2018-02-22T07:10:44.075Z,22.30
2018-02-22T07:11:44.393Z,22.70
2018-02-22T07:12:44.707Z,21.60
2018-02-22T07:13:45.029Z,23.50
2018-02-22T07:14:45.348Z,23.30
2018-02-22T07:15:45.668Z,22.30
2018-02-22T07:16:45.989Z,22.20
2018-02-22T07:17:46.307Z,22.70
2018-02-22T07:18:46.632Z,22.50
2018-02-22T07:19:46.746Z,23.20
2018-02-22T07:20:47.066Z,23.30
2018-02-22T07:21:47.391Z,23.90
2018-02-22T07:22:47.495Z,22.40
2018-02-22T07:23:47.817Z,23.20
2018-02-22T07:24:48.137Z,22.70
2018-02-22T07:25:48.467Z,22.60
2018-02-22T07:26:48.780Z,23.60
2018-02-22T07:27:49.099Z,22.30
2018-02-22T07:28:49.425Z,23.70
2018-02-22T07:29:49.723Z,22.80
2018-02-22T07:30:50.039Z,22.90
2018-02-22T07:31:50.353Z,22.80
2018-02-22T07:32:50.669Z,24.20
2018-02-22T07:33:50.983Z,23.10
2018-02-22T07:34:51.305Z,22.00
2018-02-22T07:35:51.625Z,21.50
2018-02-22T07:36:51.945Z,22.70
2018-02-22T07:37:52.266Z,23.40
2018-02-22T07:38:52.586Z,23.10
2018-02-22T07:39:52.907Z,22.90
2018-02-22T07:40:53.227Z,22.80
2018-02-22T07:41:53.547Z,23.20
2018-02-22T07:42:53.912Z,22.40
2018-02-22T07:43:54.023Z,22.30
2018-02-22T07:44:54.340Z,22.30
2018-02-22T07:45:54.647Z,22.80
2018-02-22T07:46:54.966Z,21.80
2018-02-22T07:47:55.279Z,22.40
2018-02-22T07:48:55.597Z,21.70
2018-02-22T07:49:55.915Z,21.60
2018-02-22T07:50:56.237Z,21.70
2018-02-22T07:51:56.560Z,21.80
2018-02-22T07:52:56.880Z,21.00
2018-02-22T07:53:57.202Z,22.80
2018-02-22T07:54:57.317Z,21.40
2018-02-22T07:55:57.637Z,21.70
2018-02-22T07:56:57.968Z,21.70
2018-02-22T07:57:58.077Z,21.30
2018-02-22T07:58:58.396Z,22.50
2018-02-22T07:59:58.726Z,21.60
2018-02-22T08:00:59.035Z,21.50
2018-02-22T08:01:59.363Z,21.90
2018-02-22T08:02:59.684Z,21.80
2018-02-22T08:04:00.004Z,21.40
2018-02-22T08:05:00.315Z,20.80
2018-02-22T08:06:00.627Z,20.50
2018-02-22T08:07:00.980Z,21.10
2018-02-22T08:08:01.283Z,21.10
2018-02-22T08:09:01.590Z,21.20
2018-02-22T08:10:01.892Z,21.40
2018-02-22T08:11:02.208Z,21.20
2018-02-22T08:12:02.523Z,20.90
2018-02-22T08:13:02.838Z,20.00
2018-02-22T08:14:03.160Z,20.30
2018-02-22T08:15:03.271Z,20.90
2018-02-22T08:16:03.590Z,20.40
2018-02-22T08:17:03.911Z,20.10
2018-02-22T08:18:04.231Z,20.60
2018-02-22T08:19:04.540Z,20.00
2018-02-22T08:20:04.658Z,19.50
2018-02-22T08:21:04.981Z,20.30
2018-02-22T08:22:05.328Z,20.00
2018-02-22T08:23:05.439Z,20.00
2018-02-22T08:24:05.758Z,20.70
2018-02-22T08:25:06.080Z,20.00
2018-02-22T08:26:06.407Z,20.20
2018-02-22T08:27:06.726Z,20.40
2018-02-22T08:28:07.040Z,20.30
2018-02-22T08:29:07.348Z,20.90
2018-02-22T08:30:07.670Z,20.40
2018-02-22T08:31:07.978Z,19.60
2018-02-22T08:32:08.297Z,21.20
2018-02-22T08:33:08.623Z,19.80
2018-02-22T08:34:08.940Z,18.80
2018-02-22T08:35:09.263Z,19.10
2018-02-22T08:36:09.585Z,19.60
2018-02-22T08:37:09.909Z,18.20
2018-02-22T08:38:10.225Z,18.90
2018-02-22T08:39:10.554Z,19.40
2018-02-22T08:40:10.668Z,19.00
2018-02-22T08:41:10.777Z,18.80
2018-02-22T08:42:11.110Z,19.00
2018-02-22T08:43:11.403Z,18.90
2018-02-22T08:44:11.720Z,18.80
2018-02-22T08:45:12.040Z,18.80
2018-02-22T08:46:12.361Z,19.60
2018-02-22T08:47:12.685Z,18.40
2018-02-22T08:48:13.012Z,18.00
2018-02-22T08:49:13.325Z,18.20
2018-02-22T08:50:13.638Z,17.80
2018-02-22T08:51:13.964Z,18.40
2018-02-22T08:52:14.268Z,18.30
2018-02-22T08:53:14.589Z,17.20
2018-02-22T08:54:14.914Z,17.90
2018-02-22T08:55:15.236Z,18.30
2018-02-22T08:56:15.557Z,17.10
2018-02-22T08:57:15.878Z,16.60
2018-02-22T08:58:16.198Z,17.10
2018-02-22T08:59:16.521Z,18.00
2018-02-22T09:00:16.849Z,18.00
2018-02-22T09:01:16.960Z,18.20
2018-02-22T09:02:17.280Z,16.60
2018-02-22T09:03:17.601Z,17.70
2018-02-22T09:04:17.922Z,18.00
2018-02-22T09:05:18.252Z,17.80
2018-02-22T09:06:18.558Z,18.10
2018-02-22T09:07:18.882Z,18.40
2018-02-22T09:08:19.195Z,16.90
2018-02-22T09:09:19.508Z,18.10
2018-02-22T09:10:19.825Z,17.70
2018-02-22T09:11:20.139Z,17.50
2018-02-22T09:12:20.635Z,18.10
2018-02-22T09:13:20.568Z,18.00
2018-02-22T09:14:20.896Z,17.80
2018-02-22T09:15:21.215Z,18.20
2018-02-22T09:16:21.537Z,18.40
2018-02-22T09:17:21.846Z,19.20
2018-02-22T09:18:22.163Z,18.80
2018-02-22T09:19:22.484Z,19.40
2018-02-22T09:20:22.805Z,19.00
2018-02-22T09:21:23.126Z,18.50
2018-02-22T09:22:23.456Z,17.70
2018-02-22T09:23:23.567Z,19.70
2018-02-22T09:24:23.895Z,18.60
2018-02-22T09:25:24.201Z,18.60
2018-02-22T09:26:24.545Z,18.30
2018-02-22T09:27:24.844Z,18.80
2018-02-22T09:28:25.167Z,17.70
2018-02-22T09:29:25.488Z,17.80
2018-02-22T09:30:25.806Z,17.50
2018-02-22T09:31:26.118Z,17.70
2018-02-22T09:32:26.446Z,17.90
2018-02-22T09:33:26.747Z,18.50
2018-02-22T09:34:27.061Z,16.90
2018-02-22T09:35:27.387Z,18.00
2018-02-22T09:36:27.706Z,17.90
2018-02-22T09:37:28.024Z,17.90
2018-02-22T09:38:28.344Z,18.10
2018-02-22T09:39:28.664Z,17.00
2018-02-22T09:40:28.980Z,17.30
2018-02-22T09:41:29.306Z,16.70
2018-02-22T09:42:29.415Z,18.30
2018-02-22T09:43:29.734Z,17.50
2018-02-22T09:44:30.098Z,17.80
2018-02-22T09:45:30.175Z,18.10
2018-02-22T09:46:30.509Z,18.30
2018-02-22T09:47:30.819Z,17.00
2018-02-22T09:48:31.139Z,16.40
2018-02-22T09:49:31.468Z,16.20
2018-02-22T09:50:31.799Z,17.40
2018-02-22T09:51:32.099Z,17.40
2018-02-22T09:52:32.423Z,16.30
2018-02-22T09:53:32.747Z,16.70
2018-02-22T09:54:33.043Z,15.90
2018-02-22T09:55:33.358Z,15.00
2018-02-22T09:56:33.676Z,13.90
2018-02-22T09:57:34.002Z,14.60
2018-02-22T09:58:34.108Z,14.30
2018-02-22T09:59:34.432Z,14.20
2018-02-22T10:00:34.749Z,14.20
2018-02-22T10:01:35.068Z,14.50
2018-02-22T10:02:35.389Z,13.30
2018-02-22T10:03:35.712Z,13.50
2018-02-22T10:04:36.033Z,13.50
2018-02-22T10:05:36.361Z,12.80
2018-02-22T10:06:36.471Z,13.60
2018-02-22T10:07:36.792Z,13.50
2018-02-22T10:08:37.114Z,12.30
2018-02-22T10:09:37.436Z,12.60
2018-02-22T10:10:37.762Z,12.10
2018-02-22T10:11:38.084Z,11.20
2018-02-22T10:12:38.390Z,11.60
2018-02-22T10:13:38.711Z,11.70
2018-02-22T10:14:38.821Z,12.00
2018-02-22T10:15:39.145Z,12.30
2018-02-22T10:16:40.047Z,12.30
2018-02-22T10:17:40.030Z,12.10
2018-02-22T10:18:40.572Z,12.30
2018-02-22T10:19:40.614Z,12.20
2018-02-22T10:20:40.992Z,11.80
2018-02-22T10:21:41.100Z,12.00
2018-02-22T10:22:41.205Z,11.80
2018-02-22T10:23:41.522Z,11.30
2018-02-22T10:24:41.855Z,10.80
2018-02-22T10:25:42.171Z,11.30
2018-02-22T10:26:42.490Z,10.60
2018-02-22T10:27:42.599Z,11.10
2018-02-22T10:28:43.072Z,11.40
2018-02-22T10:29:43.246Z,11.30
2018-02-22T10:30:43.565Z,11.70
2018-02-22T10:31:43.890Z,11.70
2018-02-22T10:32:44.272Z,11.50
2018-02-22T10:33:44.377Z,11.30
2018-02-22T10:34:44.705Z,11.30
2018-02-22T10:35:45.018Z,11.30
2018-02-22T10:36:45.345Z,10.30
2018-02-22T10:37:45.640Z,10.40
2018-02-22T10:38:45.958Z,10.90
2018-02-22T10:39:46.285Z,11.70
2018-02-22T10:40:46.385Z,11.40
2018-02-22T10:41:46.719Z,10.80
2018-02-22T10:42:47.038Z,10.70
2018-02-22T10:43:47.361Z,10.40
2018-02-22T10:44:47.852Z,10.90
2018-02-22T10:45:48.014Z,10.40
2018-02-22T10:46:48.133Z,11.30
2018-02-22T10:47:48.310Z,10.80
2018-02-22T10:48:48.557Z,11.00
2018-02-22T10:49:48.884Z,10.90
2018-02-22T10:50:49.199Z,12.00
2018-02-22T10:51:49.523Z,11.20
2018-02-22T10:52:49.839Z,11.20
2018-02-22T10:53:50.159Z,11.30
2018-02-22T10:54:50.501Z,10.70
2018-02-22T10:55:50.782Z,10.80
2018-02-22T10:56:51.105Z,11.20
2018-02-22T10:57:51.459Z,11.00
2018-02-22T10:58:51.739Z,11.60
2018-02-22T10:59:52.060Z,11.00
2018-02-22T11:00:52.366Z,11.50
2018-02-22T11:01:52.679Z,11.50
2018-02-22T11:02:53.127Z,11.50
2018-02-22T11:03:53.239Z,11.90
2018-02-22T11:04:53.544Z,10.80
2018-02-22T11:06:05.024Z,11.80
2018-02-22T11:06:54.109Z,12.20
2018-02-22T11:07:54.218Z,11.90
2018-02-22T11:09:09.274Z,11.30
2018-02-22T11:09:54.710Z,10.80
2018-02-22T11:10:57.800Z,10.80
2018-02-22T11:11:55.317Z,10.20
2018-02-22T11:12:55.442Z,10.30
2018-02-22T11:13:55.752Z,9.90
2018-02-22T11:17:02.569Z,10.20
2018-02-22T11:18:03.053Z,10.20
2018-02-22T11:19:03.034Z,10.40
2018-02-22T11:20:03.556Z,10.30
2018-02-22T11:21:03.696Z,10.70
2018-02-22T11:22:03.993Z,10.70
2018-02-22T11:23:04.293Z,11.20
2018-02-22T11:24:04.623Z,11.80
2018-02-22T11:25:04.945Z,12.70
2018-02-22T11:26:05.267Z,11.10
2018-02-22T11:27:05.586Z,11.30
2018-02-22T11:28:05.908Z,10.50
2018-02-22T11:29:06.242Z,11.40
2018-02-22T11:30:06.518Z,10.60
2018-02-22T11:31:06.661Z,10.60
2018-02-22T11:32:07.194Z,11.10
2018-02-22T11:33:13.908Z,11.10
2018-02-22T11:35:42.481Z,10.40
2018-02-22T11:38:19.532Z,10.40
2018-02-22T11:38:43.928Z,10.60
2018-02-22T11:39:44.254Z,10.30
2018-02-22T11:40:44.563Z,10.30
2018-02-22T11:41:44.909Z,9.30
2018-02-22T11:42:45.182Z,9.20
2018-02-22T11:43:45.597Z,10.20
2018-02-22T11:44:45.710Z,9.70
2018-02-22T11:45:46.046Z,10.00
2018-02-22T11:46:46.373Z,9.50
2018-02-22T11:47:46.480Z,10.10
2018-02-22T11:48:46.804Z,10.40
2018-02-22T11:49:47.140Z,9.90
2018-02-22T11:50:47.249Z,9.60
2018-02-22T11:51:47.581Z,10.10
2018-02-22T11:52:47.891Z,10.20
2018-02-22T11:53:48.214Z,9.80
2018-02-22T11:54:48.594Z,9.40
2018-02-22T11:55:48.855Z,10.10
2018-02-22T11:56:49.180Z,9.80
2018-02-22T11:57:49.289Z,9.40
2018-02-22T11:58:49.612Z,9.70
2018-02-22T11:59:49.717Z,10.30
2018-02-22T12:00:50.156Z,10.10
2018-02-22T12:01:50.161Z,10.00
2018-02-22T12:02:50.482Z,10.60
2018-02-22T12:03:50.805Z,9.90
2018-02-22T12:04:51.133Z,10.30
2018-02-22T12:05:51.253Z,9.80
2018-02-22T12:06:51.359Z,10.20
2018-02-22T12:07:51.709Z,11.00
2018-02-22T12:08:51.882Z,10.30
2018-02-22T12:09:51.928Z,10.20
2018-02-22T12:10:52.255Z,10.50
2018-02-22T12:11:52.578Z,10.80
2018-02-22T12:12:52.902Z,10.70
2018-02-22T12:13:53.216Z,10.60
2018-02-22T12:14:53.538Z,10.20
2018-02-22T12:15:53.860Z,11.50
2018-02-22T12:16:54.189Z,11.00
2018-02-22T12:17:54.302Z,11.00
2018-02-22T12:18:54.624Z,11.60
2018-02-22T12:19:54.946Z,10.20
2018-02-22T12:20:55.283Z,11.30
2018-02-22T12:21:55.593Z,11.00
2018-02-22T12:22:55.911Z,11.70
2018-02-22T12:23:56.224Z,10.70
2018-02-22T12:24:56.541Z,10.80
2018-02-22T12:25:56.862Z,10.90
2018-02-22T12:26:57.183Z,10.90
2018-02-22T12:27:57.505Z,11.20
2018-02-22T12:28:57.827Z,11.30
2018-02-22T12:29:58.147Z,10.90
2018-02-22T12:30:58.470Z,11.20
2018-02-22T12:31:58.791Z,11.20
2018-02-22T12:32:59.118Z,11.10
2018-02-22T12:33:59.236Z,10.80
2018-02-22T12:34:59.351Z,11.30
2018-02-22T12:35:59.665Z,11.20
2018-02-22T12:36:59.990Z,10.60
2018-02-22T12:38:00.360Z,10.80
2018-02-22T12:39:00.631Z,11.00
2018-02-22T12:40:00.948Z,11.10
2018-02-22T12:41:01.268Z,11.40
2018-02-22T12:42:01.574Z,10.80
2018-02-22T12:43:01.899Z,10.90
2018-02-22T12:44:02.268Z,10.30
2018-02-22T12:45:02.543Z,11.00
2018-02-22T12:46:02.861Z,10.80
2018-02-22T12:47:03.184Z,11.60
2018-02-22T12:48:03.517Z,11.00
2018-02-22T12:49:03.826Z,11.50
2018-02-22T12:50:04.164Z,11.40
2018-02-22T12:51:04.281Z,10.50
2018-02-22T12:52:04.391Z,10.50
2018-02-22T12:53:04.773Z,10.10
2018-02-22T12:54:05.026Z,10.00
2018-02-22T12:55:05.353Z,10.10
2018-02-22T12:56:05.668Z,10.70
2018-02-22T12:57:05.986Z,10.20
2018-02-22T12:58:06.305Z,9.40
2018-02-22T12:59:06.617Z,10.00
2018-02-22T13:00:06.953Z,9.70
2018-02-22T13:01:07.054Z,9.50
2018-02-22T13:02:07.374Z,9.90
2018-02-22T13:03:07.697Z,9.70
2018-02-22T13:04:08.018Z,10.30
2018-02-22T13:05:08.340Z,10.10
2018-02-22T13:06:08.671Z,10.30
2018-02-22T13:07:08.833Z,9.50